sensor_id;sensor_type;location;lat;lon;timestamp;temperature;humidity
3071;DHT22;1546;47.208;9.038;2023-02-01T00:00:11;4.00;99.90
3071;DHT22;1546;47.208;9.038;2023-02-01T00:02:40;4.00;99.90
3071;DHT22;1546;47.208;9.038;2023-02-01T00:05:08;4.00;99.90
3071;DHT22;1546;47.208;9.038;2023-02-01T00:07:35;4.00;99.90
3071;DHT22;1546;47.208;9.038;2023-02-01T00:10:02;4.10;99.90
3071;DHT22;1546;47.208;9.038;2023-02-01T00:12:29;4.10;99.90
3071;DHT22;1546;47.208;9.038;2023-02-01T00:14:56;4.10;99.90
3071;DHT22;1546;47.208;9.038;2023-02-01T00:17:23;4.20;99.90
3071;DHT22;1546;47.208;9.038;2023-02-01T00:19:52;4.20;99.90
3071;DHT22;1546;47.208;9.038;2023-02-01T00:22:18;4.30;99.90
3071;DHT22;1546;47.208;9.038;2023-02-01T00:24:45;4.30;99.90
3071;DHT22;1546;47.208;9.038;2023-02-01T00:27:12;4.30;99.90
3071;DHT22;1546;47.208;9.038;2023-02-01T00:29:43;4.20;99.90
3071;DHT22;1546;47.208;9.038;2023-02-01T00:32:10;4.30;99.90
3071;DHT22;1546;47.208;9.038;2023-02-01T00:34:37;4.50;99.90
3071;DHT22;1546;47.208;9.038;2023-02-01T00:37:05;4.50;99.90
3071;DHT22;1546;47.208;9.038;2023-02-01T00:39:33;4.40;99.90
3071;DHT22;1546;47.208;9.038;2023-02-01T00:42:00;4.30;99.90
3071;DHT22;1546;47.208;9.038;2023-02-01T00:44:28;4.20;99.90
3071;DHT22;1546;47.208;9.038;2023-02-01T00:46:58;4.20;99.90
3071;DHT22;1546;47.208;9.038;2023-02-01T00:49:25;4.10;99.90
3071;DHT22;1546;47.208;9.038;2023-02-01T00:51:52;4.00;99.90
3071;DHT22;1546;47.208;9.038;2023-02-01T00:54:20;4.00;99.90
3071;DHT22;1546;47.208;9.038;2023-02-01T00:56:48;3.90;99.90
3071;DHT22;1546;47.208;9.038;2023-02-01T00:59:15;3.80;99.90
3071;DHT22;1546;47.208;9.038;2023-02-01T01:01:41;3.90;99.90
3071;DHT22;1546;47.208;9.038;2023-02-01T01:04:08;3.90;99.90
3071;DHT22;1546;47.208;9.038;2023-02-01T01:06:35;3.70;99.90
3071;DHT22;1546;47.208;9.038;2023-02-01T01:09:04;3.50;99.90
3071;DHT22;1546;47.208;9.038;2023-02-01T01:11:34;3.40;99.90
3071;DHT22;1546;47.208;9.038;2023-02-01T01:14:02;3.40;99.90
3071;DHT22;1546;47.208;9.038;2023-02-01T01:16:30;3.40;99.90
3071;DHT22;1546;47.208;9.038;2023-02-01T01:18:58;3.40;99.90
3071;DHT22;1546;47.208;9.038;2023-02-01T01:21:25;3.30;99.90
3071;DHT22;1546;47.208;9.038;2023-02-01T01:23:52;3.10;99.90
3071;DHT22;1546;47.208;9.038;2023-02-01T01:26:21;3.10;99.90
3071;DHT22;1546;47.208;9.038;2023-02-01T01:28:49;3.10;99.90
3071;DHT22;1546;47.208;9.038;2023-02-01T01:31:18;3.10;99.90
3071;DHT22;1546;47.208;9.038;2023-02-01T01:33:48;3.00;99.90
3071;DHT22;1546;47.208;9.038;2023-02-01T01:36:15;2.90;99.90
3071;DHT22;1546;47.208;9.038;2023-02-01T01:38:42;2.80;99.90
3071;DHT22;1546;47.208;9.038;2023-02-01T01:41:13;2.80;99.90
3071;DHT22;1546;47.208;9.038;2023-02-01T01:43:49;2.80;99.90
3071;DHT22;1546;47.208;9.038;2023-02-01T01:46:18;2.70;99.90
3071;DHT22;1546;47.208;9.038;2023-02-01T01:48:47;2.70;99.90
3071;DHT22;1546;47.208;9.038;2023-02-01T01:51:17;2.80;99.90
3071;DHT22;1546;47.208;9.038;2023-02-01T01:53:48;2.90;99.90
3071;DHT22;1546;47.208;9.038;2023-02-01T01:56:17;2.80;99.90
3071;DHT22;1546;47.208;9.038;2023-02-01T01:58:44;2.80;99.90
3071;DHT22;1546;47.208;9.038;2023-02-01T02:01:12;2.70;99.90
3071;DHT22;1546;47.208;9.038;2023-02-01T02:03:41;2.70;99.90
3071;DHT22;1546;47.208;9.038;2023-02-01T02:06:14;2.60;99.90
3071;DHT22;1546;47.208;9.038;2023-02-01T02:08:41;2.50;99.90
3071;DHT22;1546;47.208;9.038;2023-02-01T02:11:10;2.50;99.90
3071;DHT22;1546;47.208;9.038;2023-02-01T02:13:41;2.50;99.90
3071;DHT22;1546;47.208;9.038;2023-02-01T02:16:19;2.50;99.90
3071;DHT22;1546;47.208;9.038;2023-02-01T02:18:57;2.40;99.90
3071;DHT22;1546;47.208;9.038;2023-02-01T02:21:41;2.20;99.90
3071;DHT22;1546;47.208;9.038;2023-02-01T02:24:37;2.20;99.90
3071;DHT22;1546;47.208;9.038;2023-02-01T02:27:15;2.20;99.90
3071;DHT22;1546;47.208;9.038;2023-02-01T02:36:34;2.00;99.90
3071;DHT22;1546;47.208;9.038;2023-02-01T02:39:06;1.90;99.90
3071;DHT22;1546;47.208;9.038;2023-02-01T02:41:43;1.90;99.90
3071;DHT22;1546;47.208;9.038;2023-02-01T02:44:34;1.90;99.90
3071;DHT22;1546;47.208;9.038;2023-02-01T02:47:23;1.90;99.90
3071;DHT22;1546;47.208;9.038;2023-02-01T02:49:58;2.00;99.90
3071;DHT22;1546;47.208;9.038;2023-02-01T02:52:53;2.00;99.90
3071;DHT22;1546;47.208;9.038;2023-02-01T02:55:40;2.10;99.90
3071;DHT22;1546;47.208;9.038;2023-02-01T02:58:08;1.90;99.90
3071;DHT22;1546;47.208;9.038;2023-02-01T03:00:55;1.80;99.90
3071;DHT22;1546;47.208;9.038;2023-02-01T03:03:40;1.80;99.90
3071;DHT22;1546;47.208;9.038;2023-02-01T03:06:25;1.90;99.90
3071;DHT22;1546;47.208;9.038;2023-02-01T03:08:57;1.80;99.90
3071;DHT22;1546;47.208;9.038;2023-02-01T03:11:25;1.80;99.90
3071;DHT22;1546;47.208;9.038;2023-02-01T03:14:15;1.90;99.90
3071;DHT22;1546;47.208;9.038;2023-02-01T03:16:48;2.00;99.90
3071;DHT22;1546;47.208;9.038;2023-02-01T03:19:20;2.00;99.90
3071;DHT22;1546;47.208;9.038;2023-02-01T03:21:50;2.10;99.90
3071;DHT22;1546;47.208;9.038;2023-02-01T03:24:23;2.10;99.90
3071;DHT22;1546;47.208;9.038;2023-02-01T03:27:02;2.20;99.90
3071;DHT22;1546;47.208;9.038;2023-02-01T03:29:36;2.20;99.90
3071;DHT22;1546;47.208;9.038;2023-02-01T03:32:04;2.10;99.90
3071;DHT22;1546;47.208;9.038;2023-02-01T03:34:31;2.00;99.90
3071;DHT22;1546;47.208;9.038;2023-02-01T03:37:01;1.80;99.90
3071;DHT22;1546;47.208;9.038;2023-02-01T03:39:34;1.70;99.90
3071;DHT22;1546;47.208;9.038;2023-02-01T03:42:04;1.70;99.90
3071;DHT22;1546;47.208;9.038;2023-02-01T03:44:35;1.70;99.90
3071;DHT22;1546;47.208;9.038;2023-02-01T03:47:06;1.70;99.90
3071;DHT22;1546;47.208;9.038;2023-02-01T03:49:37;1.80;99.90
3071;DHT22;1546;47.208;9.038;2023-02-01T03:52:07;2.00;99.90
3071;DHT22;1546;47.208;9.038;2023-02-01T03:54:38;2.20;99.90
3071;DHT22;1546;47.208;9.038;2023-02-01T03:57:08;2.40;99.90
3071;DHT22;1546;47.208;9.038;2023-02-01T03:59:39;2.40;99.90
3071;DHT22;1546;47.208;9.038;2023-02-01T04:02:06;2.30;99.90
3071;DHT22;1546;47.208;9.038;2023-02-01T04:04:34;2.40;99.90
3071;DHT22;1546;47.208;9.038;2023-02-01T04:07:01;2.60;99.90
3071;DHT22;1546;47.208;9.038;2023-02-01T04:09:28;2.70;99.90
3071;DHT22;1546;47.208;9.038;2023-02-01T04:11:56;2.60;99.90
3071;DHT22;1546;47.208;9.038;2023-02-01T04:14:22;2.40;99.90
3071;DHT22;1546;47.208;9.038;2023-02-01T04:16:49;2.60;99.90
3071;DHT22;1546;47.208;9.038;2023-02-01T04:19:16;2.70;99.90
3071;DHT22;1546;47.208;9.038;2023-02-01T04:21:43;2.80;99.90
3071;DHT22;1546;47.208;9.038;2023-02-01T04:24:10;2.90;99.90
3071;DHT22;1546;47.208;9.038;2023-02-01T04:26:37;2.80;99.90
3071;DHT22;1546;47.208;9.038;2023-02-01T04:29:05;2.70;99.90
3071;DHT22;1546;47.208;9.038;2023-02-01T04:31:32;2.60;99.90
3071;DHT22;1546;47.208;9.038;2023-02-01T04:34:01;2.70;99.90
3071;DHT22;1546;47.208;9.038;2023-02-01T04:36:27;2.80;99.90
3071;DHT22;1546;47.208;9.038;2023-02-01T04:38:54;2.90;99.90
3071;DHT22;1546;47.208;9.038;2023-02-01T04:41:21;2.70;99.90
3071;DHT22;1546;47.208;9.038;2023-02-01T04:43:49;2.60;99.90
3071;DHT22;1546;47.208;9.038;2023-02-01T04:46:17;2.40;99.90
3071;DHT22;1546;47.208;9.038;2023-02-01T04:48:44;2.30;99.90
3071;DHT22;1546;47.208;9.038;2023-02-01T04:51:11;2.30;99.90
3071;DHT22;1546;47.208;9.038;2023-02-01T04:53:38;2.30;99.90
3071;DHT22;1546;47.208;9.038;2023-02-01T04:56:06;2.40;99.90
3071;DHT22;1546;47.208;9.038;2023-02-01T04:58:33;2.70;99.90
3071;DHT22;1546;47.208;9.038;2023-02-01T05:01:02;2.70;99.90
3071;DHT22;1546;47.208;9.038;2023-02-01T05:03:31;2.80;99.90
3071;DHT22;1546;47.208;9.038;2023-02-01T05:05:58;2.80;99.90
3071;DHT22;1546;47.208;9.038;2023-02-01T05:08:26;2.80;99.90
3071;DHT22;1546;47.208;9.038;2023-02-01T05:10:54;3.00;99.90
3071;DHT22;1546;47.208;9.038;2023-02-01T05:13:21;3.00;99.90
3071;DHT22;1546;47.208;9.038;2023-02-01T05:16:01;3.00;99.90
3071;DHT22;1546;47.208;9.038;2023-02-01T05:18:28;3.20;99.90
3071;DHT22;1546;47.208;9.038;2023-02-01T05:20:56;3.20;99.90
3071;DHT22;1546;47.208;9.038;2023-02-01T05:23:23;3.30;99.90
3071;DHT22;1546;47.208;9.038;2023-02-01T05:25:50;3.50;99.90
3071;DHT22;1546;47.208;9.038;2023-02-01T05:28:16;3.60;99.90
3071;DHT22;1546;47.208;9.038;2023-02-01T05:30:43;3.60;99.90
3071;DHT22;1546;47.208;9.038;2023-02-01T05:33:10;3.50;99.90
3071;DHT22;1546;47.208;9.038;2023-02-01T05:35:37;3.40;99.90
3071;DHT22;1546;47.208;9.038;2023-02-01T05:38:05;3.40;99.90
3071;DHT22;1546;47.208;9.038;2023-02-01T05:40:32;3.40;99.90
3071;DHT22;1546;47.208;9.038;2023-02-01T05:42:59;3.30;99.90
3071;DHT22;1546;47.208;9.038;2023-02-01T05:45:25;3.30;99.90
3071;DHT22;1546;47.208;9.038;2023-02-01T05:47:52;3.40;99.90
3071;DHT22;1546;47.208;9.038;2023-02-01T05:50:19;3.40;99.90
3071;DHT22;1546;47.208;9.038;2023-02-01T05:52:46;3.50;99.90
3071;DHT22;1546;47.208;9.038;2023-02-01T05:55:15;3.40;99.90
3071;DHT22;1546;47.208;9.038;2023-02-01T05:57:42;3.40;99.90
3071;DHT22;1546;47.208;9.038;2023-02-01T06:00:09;3.50;99.90
3071;DHT22;1546;47.208;9.038;2023-02-01T06:02:36;3.50;99.90
3071;DHT22;1546;47.208;9.038;2023-02-01T06:05:04;3.60;99.90
3071;DHT22;1546;47.208;9.038;2023-02-01T06:07:31;3.60;99.90
3071;DHT22;1546;47.208;9.038;2023-02-01T06:09:58;3.60;99.90
3071;DHT22;1546;47.208;9.038;2023-02-01T06:12:26;3.60;99.90
3071;DHT22;1546;47.208;9.038;2023-02-01T06:14:53;3.60;99.90
3071;DHT22;1546;47.208;9.038;2023-02-01T06:17:20;3.60;99.90
3071;DHT22;1546;47.208;9.038;2023-02-01T06:19:47;3.50;99.90
3071;DHT22;1546;47.208;9.038;2023-02-01T06:22:14;3.60;99.90
3071;DHT22;1546;47.208;9.038;2023-02-01T06:24:41;3.60;99.90
3071;DHT22;1546;47.208;9.038;2023-02-01T06:27:08;3.60;99.90
3071;DHT22;1546;47.208;9.038;2023-02-01T06:29:36;3.70;99.90
3071;DHT22;1546;47.208;9.038;2023-02-01T06:32:04;3.60;99.90
3071;DHT22;1546;47.208;9.038;2023-02-01T06:34:30;3.70;99.90
3071;DHT22;1546;47.208;9.038;2023-02-01T06:36:57;3.70;99.90
3071;DHT22;1546;47.208;9.038;2023-02-01T06:39:24;3.80;99.90
3071;DHT22;1546;47.208;9.038;2023-02-01T06:41:52;3.90;99.90
3071;DHT22;1546;47.208;9.038;2023-02-01T06:44:19;3.90;99.90
3071;DHT22;1546;47.208;9.038;2023-02-01T06:46:47;4.00;99.90
3071;DHT22;1546;47.208;9.038;2023-02-01T06:49:14;4.10;99.90
3071;DHT22;1546;47.208;9.038;2023-02-01T06:51:41;4.10;99.90
3071;DHT22;1546;47.208;9.038;2023-02-01T06:54:08;4.10;99.90
3071;DHT22;1546;47.208;9.038;2023-02-01T06:56:35;4.20;99.90
3071;DHT22;1546;47.208;9.038;2023-02-01T06:59:03;4.10;99.90
3071;DHT22;1546;47.208;9.038;2023-02-01T07:01:30;4.00;99.90
3071;DHT22;1546;47.208;9.038;2023-02-01T07:03:59;3.80;99.90
3071;DHT22;1546;47.208;9.038;2023-02-01T07:06:26;3.60;99.90
3071;DHT22;1546;47.208;9.038;2023-02-01T07:08:52;3.50;99.90
3071;DHT22;1546;47.208;9.038;2023-02-01T07:11:21;3.50;99.90
3071;DHT22;1546;47.208;9.038;2023-02-01T07:13:49;3.50;99.90
3071;DHT22;1546;47.208;9.038;2023-02-01T07:16:17;3.50;99.90
3071;DHT22;1546;47.208;9.038;2023-02-01T07:18:44;3.50;99.90
3071;DHT22;1546;47.208;9.038;2023-02-01T07:21:13;3.70;99.90
3071;DHT22;1546;47.208;9.038;2023-02-01T07:23:40;3.70;99.90
3071;DHT22;1546;47.208;9.038;2023-02-01T07:26:07;3.70;99.90
3071;DHT22;1546;47.208;9.038;2023-02-01T07:28:35;3.70;99.90
3071;DHT22;1546;47.208;9.038;2023-02-01T07:31:03;3.80;99.90
3071;DHT22;1546;47.208;9.038;2023-02-01T07:33:30;3.90;99.90
3071;DHT22;1546;47.208;9.038;2023-02-01T07:35:57;4.00;99.90
3071;DHT22;1546;47.208;9.038;2023-02-01T07:38:28;4.00;99.90
3071;DHT22;1546;47.208;9.038;2023-02-01T07:40:57;4.10;99.90
3071;DHT22;1546;47.208;9.038;2023-02-01T07:43:25;4.10;99.90
3071;DHT22;1546;47.208;9.038;2023-02-01T07:45:53;4.00;99.90
3071;DHT22;1546;47.208;9.038;2023-02-01T07:48:20;3.90;99.90
3071;DHT22;1546;47.208;9.038;2023-02-01T07:50:47;3.90;99.90
3071;DHT22;1546;47.208;9.038;2023-02-01T07:53:14;3.70;99.90
3071;DHT22;1546;47.208;9.038;2023-02-01T07:55:42;3.90;99.90
3071;DHT22;1546;47.208;9.038;2023-02-01T07:58:09;4.00;99.90
3071;DHT22;1546;47.208;9.038;2023-02-01T08:00:36;4.00;99.90
3071;DHT22;1546;47.208;9.038;2023-02-01T08:03:20;4.00;99.90
3071;DHT22;1546;47.208;9.038;2023-02-01T08:05:47;4.10;99.90
3071;DHT22;1546;47.208;9.038;2023-02-01T08:08:13;4.20;99.90
3071;DHT22;1546;47.208;9.038;2023-02-01T08:10:42;4.00;99.90
3071;DHT22;1546;47.208;9.038;2023-02-01T08:13:08;4.10;99.90
3071;DHT22;1546;47.208;9.038;2023-02-01T08:15:35;4.10;99.90
3071;DHT22;1546;47.208;9.038;2023-02-01T08:18:02;4.20;99.90
3071;DHT22;1546;47.208;9.038;2023-02-01T08:20:30;4.20;99.90
3071;DHT22;1546;47.208;9.038;2023-02-01T08:22:57;4.20;99.90
3071;DHT22;1546;47.208;9.038;2023-02-01T08:25:24;4.20;99.90
3071;DHT22;1546;47.208;9.038;2023-02-01T08:27:53;4.40;99.90
3071;DHT22;1546;47.208;9.038;2023-02-01T08:30:20;4.40;99.90
3071;DHT22;1546;47.208;9.038;2023-02-01T08:32:47;4.50;99.90
3071;DHT22;1546;47.208;9.038;2023-02-01T08:35:14;4.60;99.90
3071;DHT22;1546;47.208;9.038;2023-02-01T08:37:41;4.80;99.90
3071;DHT22;1546;47.208;9.038;2023-02-01T08:40:09;4.90;99.90
3071;DHT22;1546;47.208;9.038;2023-02-01T08:42:36;5.00;99.90
3071;DHT22;1546;47.208;9.038;2023-02-01T08:45:22;5.10;99.90
3071;DHT22;1546;47.208;9.038;2023-02-01T08:47:50;5.00;99.90
3071;DHT22;1546;47.208;9.038;2023-02-01T08:50:18;5.10;99.90
3071;DHT22;1546;47.208;9.038;2023-02-01T08:52:45;5.00;99.90
3071;DHT22;1546;47.208;9.038;2023-02-01T08:55:12;4.90;99.90
3071;DHT22;1546;47.208;9.038;2023-02-01T08:57:39;5.10;99.90
3071;DHT22;1546;47.208;9.038;2023-02-01T09:00:10;5.20;99.90
3071;DHT22;1546;47.208;9.038;2023-02-01T09:02:39;5.10;99.90
3071;DHT22;1546;47.208;9.038;2023-02-01T09:05:07;5.00;99.90
3071;DHT22;1546;47.208;9.038;2023-02-01T09:07:34;4.90;99.90
3071;DHT22;1546;47.208;9.038;2023-02-01T09:10:01;4.80;99.90
3071;DHT22;1546;47.208;9.038;2023-02-01T09:12:29;4.80;99.90
3071;DHT22;1546;47.208;9.038;2023-02-01T09:14:56;5.00;99.90
3071;DHT22;1546;47.208;9.038;2023-02-01T09:17:24;5.10;99.90
3071;DHT22;1546;47.208;9.038;2023-02-01T09:19:52;5.10;99.90
3071;DHT22;1546;47.208;9.038;2023-02-01T09:22:20;5.10;99.90
3071;DHT22;1546;47.208;9.038;2023-02-01T09:24:46;5.30;99.90
3071;DHT22;1546;47.208;9.038;2023-02-01T09:27:13;5.30;99.90
3071;DHT22;1546;47.208;9.038;2023-02-01T09:29:40;5.40;99.90
3071;DHT22;1546;47.208;9.038;2023-02-01T09:32:07;5.50;99.90
3071;DHT22;1546;47.208;9.038;2023-02-01T09:34:34;5.50;99.90
3071;DHT22;1546;47.208;9.038;2023-02-01T09:37:02;5.60;99.90
3071;DHT22;1546;47.208;9.038;2023-02-01T09:39:29;5.60;99.90
3071;DHT22;1546;47.208;9.038;2023-02-01T09:42:02;5.60;99.90
3071;DHT22;1546;47.208;9.038;2023-02-01T09:44:48;5.60;99.90
3071;DHT22;1546;47.208;9.038;2023-02-01T09:47:18;5.50;99.90
3071;DHT22;1546;47.208;9.038;2023-02-01T09:49:50;5.50;99.90
3071;DHT22;1546;47.208;9.038;2023-02-01T09:52:25;5.50;99.90
3071;DHT22;1546;47.208;9.038;2023-02-01T09:54:56;5.70;99.90
3071;DHT22;1546;47.208;9.038;2023-02-01T09:57:30;5.70;99.90
3071;DHT22;1546;47.208;9.038;2023-02-01T10:00:03;5.80;99.90
3071;DHT22;1546;47.208;9.038;2023-02-01T10:02:36;6.00;99.90
3071;DHT22;1546;47.208;9.038;2023-02-01T10:05:11;6.10;99.90
3071;DHT22;1546;47.208;9.038;2023-02-01T10:07:46;6.10;99.90
3071;DHT22;1546;47.208;9.038;2023-02-01T10:10:23;6.00;99.30
3071;DHT22;1546;47.208;9.038;2023-02-01T10:13:10;6.10;99.90
3071;DHT22;1546;47.208;9.038;2023-02-01T10:15:48;6.10;99.60
3071;DHT22;1546;47.208;9.038;2023-02-01T10:18:34;6.00;99.60
3071;DHT22;1546;47.208;9.038;2023-02-01T10:21:10;5.90;99.90
3071;DHT22;1546;47.208;9.038;2023-02-01T10:24:02;5.90;99.90
3071;DHT22;1546;47.208;9.038;2023-02-01T10:26:37;5.80;99.90
3071;DHT22;1546;47.208;9.038;2023-02-01T10:29:14;5.80;99.90
3071;DHT22;1546;47.208;9.038;2023-02-01T10:31:42;5.70;99.90
3071;DHT22;1546;47.208;9.038;2023-02-01T10:34:15;5.70;99.90
3071;DHT22;1546;47.208;9.038;2023-02-01T10:36:52;5.60;99.90
3071;DHT22;1546;47.208;9.038;2023-02-01T10:39:21;5.60;99.90
3071;DHT22;1546;47.208;9.038;2023-02-01T10:41:49;5.70;99.90
3071;DHT22;1546;47.208;9.038;2023-02-01T10:44:18;5.70;99.90
3071;DHT22;1546;47.208;9.038;2023-02-01T10:46:46;5.80;99.90
3071;DHT22;1546;47.208;9.038;2023-02-01T10:49:17;6.00;99.90
3071;DHT22;1546;47.208;9.038;2023-02-01T10:51:48;6.10;99.90
3071;DHT22;1546;47.208;9.038;2023-02-01T10:54:19;6.10;99.90
3071;DHT22;1546;47.208;9.038;2023-02-01T10:56:49;6.10;99.90
3071;DHT22;1546;47.208;9.038;2023-02-01T10:59:19;6.20;99.90
3071;DHT22;1546;47.208;9.038;2023-02-01T11:01:48;6.30;99.90
3071;DHT22;1546;47.208;9.038;2023-02-01T11:04:16;6.20;99.90
3071;DHT22;1546;47.208;9.038;2023-02-01T11:06:46;6.30;99.90
3071;DHT22;1546;47.208;9.038;2023-02-01T11:09:18;6.30;99.90
3071;DHT22;1546;47.208;9.038;2023-02-01T11:11:56;6.50;99.90
3071;DHT22;1546;47.208;9.038;2023-02-01T11:14:32;6.40;99.90
3071;DHT22;1546;47.208;9.038;2023-02-01T11:17:02;6.30;99.90
3071;DHT22;1546;47.208;9.038;2023-02-01T11:19:39;6.50;99.90
3071;DHT22;1546;47.208;9.038;2023-02-01T11:22:12;6.80;99.90
3071;DHT22;1546;47.208;9.038;2023-02-01T11:24:40;7.00;99.90
3071;DHT22;1546;47.208;9.038;2023-02-01T11:27:15;7.00;99.60
3071;DHT22;1546;47.208;9.038;2023-02-01T11:29:46;6.90;99.90
3071;DHT22;1546;47.208;9.038;2023-02-01T11:32:16;6.90;99.90
3071;DHT22;1546;47.208;9.038;2023-02-01T11:34:46;7.10;99.90
3071;DHT22;1546;47.208;9.038;2023-02-01T11:37:17;7.20;99.50
3071;DHT22;1546;47.208;9.038;2023-02-01T11:39:53;7.20;99.00
3071;DHT22;1546;47.208;9.038;2023-02-01T11:42:22;7.10;98.90
3071;DHT22;1546;47.208;9.038;2023-02-01T11:44:49;7.10;99.00
3071;DHT22;1546;47.208;9.038;2023-02-01T11:47:26;7.20;99.40
3071;DHT22;1546;47.208;9.038;2023-02-01T11:49:55;7.20;98.40
3071;DHT22;1546;47.208;9.038;2023-02-01T11:52:35;7.10;98.50
3071;DHT22;1546;47.208;9.038;2023-02-01T11:55:23;7.30;99.00
3071;DHT22;1546;47.208;9.038;2023-02-01T11:58:02;7.50;98.00
3071;DHT22;1546;47.208;9.038;2023-02-01T12:00:46;7.50;97.70
3071;DHT22;1546;47.208;9.038;2023-02-01T12:03:43;7.70;98.10
3071;DHT22;1546;47.208;9.038;2023-02-01T12:06:20;7.80;98.10
3071;DHT22;1546;47.208;9.038;2023-02-01T12:09:13;7.80;97.50
3071;DHT22;1546;47.208;9.038;2023-02-01T12:11:57;7.90;97.60
3071;DHT22;1546;47.208;9.038;2023-02-01T12:14:38;8.20;97.20
3071;DHT22;1546;47.208;9.038;2023-02-01T12:17:30;8.80;97.00
3071;DHT22;1546;47.208;9.038;2023-02-01T12:20:15;9.30;96.70
3071;DHT22;1546;47.208;9.038;2023-02-01T12:22:52;9.60;95.90
3071;DHT22;1546;47.208;9.038;2023-02-01T12:25:33;9.80;95.00
3071;DHT22;1546;47.208;9.038;2023-02-01T12:28:37;9.60;94.50
3071;DHT22;1546;47.208;9.038;2023-02-01T12:31:25;9.40;94.50
3071;DHT22;1546;47.208;9.038;2023-02-01T12:34:05;9.20;94.40
3071;DHT22;1546;47.208;9.038;2023-02-01T12:36:41;9.10;94.70
3071;DHT22;1546;47.208;9.038;2023-02-01T12:39:17;9.00;94.90
3071;DHT22;1546;47.208;9.038;2023-02-01T12:41:52;9.10;94.70
3071;DHT22;1546;47.208;9.038;2023-02-01T12:44:32;9.10;94.60
3071;DHT22;1546;47.208;9.038;2023-02-01T12:47:06;9.00;94.70
3071;DHT22;1546;47.208;9.038;2023-02-01T12:49:43;9.00;94.60
3071;DHT22;1546;47.208;9.038;2023-02-01T12:52:14;9.00;94.60
3071;DHT22;1546;47.208;9.038;2023-02-01T12:54:45;8.90;95.10
3071;DHT22;1546;47.208;9.038;2023-02-01T12:57:16;8.90;95.60
3071;DHT22;1546;47.208;9.038;2023-02-01T12:59:48;9.30;95.40
3071;DHT22;1546;47.208;9.038;2023-02-01T13:02:25;9.60;95.00
3071;DHT22;1546;47.208;9.038;2023-02-01T13:04:59;9.80;95.10
3071;DHT22;1546;47.208;9.038;2023-02-01T13:07:31;10.10;93.90
3071;DHT22;1546;47.208;9.038;2023-02-01T13:10:03;10.30;93.50
3071;DHT22;1546;47.208;9.038;2023-02-01T13:12:35;10.30;92.90
3071;DHT22;1546;47.208;9.038;2023-02-01T13:15:09;9.80;93.70
3071;DHT22;1546;47.208;9.038;2023-02-01T13:17:41;9.50;94.30
3071;DHT22;1546;47.208;9.038;2023-02-01T13:20:17;9.50;95.00
3071;DHT22;1546;47.208;9.038;2023-02-01T13:22:48;9.60;94.90
3071;DHT22;1546;47.208;9.038;2023-02-01T13:25:24;9.70;94.30
3071;DHT22;1546;47.208;9.038;2023-02-01T13:27:53;9.80;94.20
3071;DHT22;1546;47.208;9.038;2023-02-01T13:30:22;9.70;94.60
3071;DHT22;1546;47.208;9.038;2023-02-01T13:33:17;9.40;94.70
3071;DHT22;1546;47.208;9.038;2023-02-01T13:39:03;9.40;94.80
3071;DHT22;1546;47.208;9.038;2023-02-01T13:41:41;9.10;94.80
3071;DHT22;1546;47.208;9.038;2023-02-01T13:44:19;8.80;95.40
3071;DHT22;1546;47.208;9.038;2023-02-01T13:46:51;9.00;95.00
3071;DHT22;1546;47.208;9.038;2023-02-01T13:49:24;9.10;95.00
3071;DHT22;1546;47.208;9.038;2023-02-01T13:51:54;9.00;94.30
3071;DHT22;1546;47.208;9.038;2023-02-01T13:54:28;8.80;94.60
3071;DHT22;1546;47.208;9.038;2023-02-01T13:56:55;8.70;95.10
3071;DHT22;1546;47.208;9.038;2023-02-01T13:59:49;8.70;95.40
3071;DHT22;1546;47.208;9.038;2023-02-01T14:08:36;8.10;95.30
3071;DHT22;1546;47.208;9.038;2023-02-01T14:11:03;7.90;95.60
3071;DHT22;1546;47.208;9.038;2023-02-01T14:13:32;7.90;95.70
3071;DHT22;1546;47.208;9.038;2023-02-01T14:16:12;8.00;96.00
3071;DHT22;1546;47.208;9.038;2023-02-01T14:19:06;8.00;95.70
3071;DHT22;1546;47.208;9.038;2023-02-01T14:21:45;8.20;96.00
3071;DHT22;1546;47.208;9.038;2023-02-01T14:24:20;8.40;96.00
3071;DHT22;1546;47.208;9.038;2023-02-01T14:26:50;8.40;95.30
3071;DHT22;1546;47.208;9.038;2023-02-01T14:29:29;8.20;94.90
3071;DHT22;1546;47.208;9.038;2023-02-01T14:32:03;8.10;95.10
3071;DHT22;1546;47.208;9.038;2023-02-01T14:34:36;8.20;95.20
3071;DHT22;1546;47.208;9.038;2023-02-01T14:37:11;8.30;94.80
3071;DHT22;1546;47.208;9.038;2023-02-01T14:39:52;8.50;94.90
3071;DHT22;1546;47.208;9.038;2023-02-01T14:42:24;8.60;94.80
3071;DHT22;1546;47.208;9.038;2023-02-01T14:44:53;8.60;94.90
3071;DHT22;1546;47.208;9.038;2023-02-01T14:47:33;8.60;95.40
3071;DHT22;1546;47.208;9.038;2023-02-01T14:50:26;8.50;95.60
3071;DHT22;1546;47.208;9.038;2023-02-01T14:53:26;8.30;94.50
3071;DHT22;1546;47.208;9.038;2023-02-01T14:56:00;8.10;95.50
3071;DHT22;1546;47.208;9.038;2023-02-01T14:58:36;8.10;95.40
3071;DHT22;1546;47.208;9.038;2023-02-01T15:01:16;7.90;95.00
3071;DHT22;1546;47.208;9.038;2023-02-01T15:03:49;7.90;95.90
3071;DHT22;1546;47.208;9.038;2023-02-01T15:06:36;7.90;96.30
3071;DHT22;1546;47.208;9.038;2023-02-01T15:09:07;7.80;95.30
3071;DHT22;1546;47.208;9.038;2023-02-01T15:12:01;7.80;94.90
3071;DHT22;1546;47.208;9.038;2023-02-01T15:14:30;7.80;95.30
3071;DHT22;1546;47.208;9.038;2023-02-01T15:16:57;7.60;95.60
3071;DHT22;1546;47.208;9.038;2023-02-01T15:19:25;7.60;96.10
3071;DHT22;1546;47.208;9.038;2023-02-01T15:21:54;7.60;95.70
3071;DHT22;1546;47.208;9.038;2023-02-01T15:24:23;7.70;95.40
3071;DHT22;1546;47.208;9.038;2023-02-01T15:26:50;7.80;95.40
3071;DHT22;1546;47.208;9.038;2023-02-01T15:29:20;7.80;95.70
3071;DHT22;1546;47.208;9.038;2023-02-01T15:31:48;7.80;95.60
3071;DHT22;1546;47.208;9.038;2023-02-01T15:34:16;7.90;95.50
3071;DHT22;1546;47.208;9.038;2023-02-01T15:36:44;7.90;95.70
3071;DHT22;1546;47.208;9.038;2023-02-01T15:39:20;7.90;95.40
3071;DHT22;1546;47.208;9.038;2023-02-01T15:41:54;7.90;95.40
3071;DHT22;1546;47.208;9.038;2023-02-01T15:44:32;7.80;95.30
3071;DHT22;1546;47.208;9.038;2023-02-01T15:47:04;7.60;95.50
3071;DHT22;1546;47.208;9.038;2023-02-01T15:49:36;7.60;95.70
3071;DHT22;1546;47.208;9.038;2023-02-01T15:52:04;7.50;96.10
3071;DHT22;1546;47.208;9.038;2023-02-01T15:54:42;7.30;95.80
3071;DHT22;1546;47.208;9.038;2023-02-01T15:57:10;7.30;96.10
3071;DHT22;1546;47.208;9.038;2023-02-01T15:59:43;7.20;96.10
3071;DHT22;1546;47.208;9.038;2023-02-01T16:02:25;7.20;96.10
3071;DHT22;1546;47.208;9.038;2023-02-01T16:04:52;7.30;96.10
3071;DHT22;1546;47.208;9.038;2023-02-01T16:07:27;7.30;96.00
3071;DHT22;1546;47.208;9.038;2023-02-01T16:09:55;7.20;96.20
3071;DHT22;1546;47.208;9.038;2023-02-01T16:12:30;7.10;96.40
3071;DHT22;1546;47.208;9.038;2023-02-01T16:14:58;7.00;96.60
3071;DHT22;1546;47.208;9.038;2023-02-01T16:17:25;7.00;97.00
3071;DHT22;1546;47.208;9.038;2023-02-01T16:19:52;6.80;97.00
3071;DHT22;1546;47.208;9.038;2023-02-01T16:22:18;6.80;97.40
3071;DHT22;1546;47.208;9.038;2023-02-01T16:24:45;6.80;97.40
3071;DHT22;1546;47.208;9.038;2023-02-01T16:27:12;6.90;96.90
3071;DHT22;1546;47.208;9.038;2023-02-01T16:29:39;6.90;97.00
3071;DHT22;1546;47.208;9.038;2023-02-01T16:32:13;6.90;96.50
3071;DHT22;1546;47.208;9.038;2023-02-01T16:34:41;6.80;96.50
3071;DHT22;1546;47.208;9.038;2023-02-01T16:37:11;6.80;96.60
3071;DHT22;1546;47.208;9.038;2023-02-01T16:39:38;6.80;96.30
3071;DHT22;1546;47.208;9.038;2023-02-01T16:42:10;6.80;96.20
3071;DHT22;1546;47.208;9.038;2023-02-01T16:44:37;6.80;96.00
3071;DHT22;1546;47.208;9.038;2023-02-01T16:47:12;6.80;95.90
3071;DHT22;1546;47.208;9.038;2023-02-01T16:49:41;6.80;96.10
3071;DHT22;1546;47.208;9.038;2023-02-01T16:52:14;6.80;95.90
3071;DHT22;1546;47.208;9.038;2023-02-01T16:54:41;6.90;95.90
3071;DHT22;1546;47.208;9.038;2023-02-01T16:57:11;6.90;95.80
3071;DHT22;1546;47.208;9.038;2023-02-01T16:59:38;7.00;95.80